sensor_id;sensor_type;location;lat;lon;timestamp;P1;durP1;ratioP1;P2;durP2;ratioP2
15055;SDS011;7626;42.674;23.284;2022-12-18T00:02:00;5.47;;;4.97;;
15055;SDS011;7626;42.674;23.284;2022-12-18T00:04:28;5.60;;;5.10;;
15055;SDS011;7626;42.674;23.284;2022-12-18T00:06:56;5.60;;;5.10;;
15055;SDS011;7626;42.674;23.284;2022-12-18T00:09:23;5.60;;;5.10;;
15055;SDS011;7626;42.674;23.284;2022-12-18T00:11:49;5.50;;;5.00;;
15055;SDS011;7626;42.674;23.284;2022-12-18T00:14:17;5.70;;;5.20;;
15055;SDS011;7626;42.674;23.284;2022-12-18T00:16:45;5.77;;;5.17;;
15055;SDS011;7626;42.674;23.284;2022-12-18T00:19:12;5.43;;;4.93;;
15055;SDS011;7626;42.674;23.284;2022-12-18T00:21:41;6.00;;;5.50;;
15055;SDS011;7626;42.674;23.284;2022-12-18T00:24:08;5.83;;;5.33;;
15055;SDS011;7626;42.674;23.284;2022-12-18T00:26:36;5.53;;;5.03;;
15055;SDS011;7626;42.674;23.284;2022-12-18T00:29:06;5.57;;;5.07;;
15055;SDS011;7626;42.674;23.284;2022-12-18T00:31:35;6.20;;;5.60;;
15055;SDS011;7626;42.674;23.284;2022-12-18T00:34:04;5.60;;;5.10;;
15055;SDS011;7626;42.674;23.284;2022-12-18T00:36:31;5.70;;;5.20;;
15055;SDS011;7626;42.674;23.284;2022-12-18T00:39:00;5.80;;;5.30;;
15055;SDS011;7626;42.674;23.284;2022-12-18T00:41:29;5.50;;;5.00;;
15055;SDS011;7626;42.674;23.284;2022-12-18T00:44:14;5.73;;;5.23;;
15055;SDS011;7626;42.674;23.284;2022-12-18T00:46:44;5.40;;;4.90;;
15055;SDS011;7626;42.674;23.284;2022-12-18T00:49:12;5.77;;;5.20;;
15055;SDS011;7626;42.674;23.284;2022-12-18T00:51:39;5.40;;;4.90;;
15055;SDS011;7626;42.674;23.284;2022-12-18T00:54:06;5.60;;;5.10;;
15055;SDS011;7626;42.674;23.284;2022-12-18T00:56:34;5.30;;;4.90;;
15055;SDS011;7626;42.674;23.284;2022-12-18T00:59:02;5.47;;;5.00;;
15055;SDS011;7626;42.674;23.284;2022-12-18T01:01:29;5.80;;;5.27;;
15055;SDS011;7626;42.674;23.284;2022-12-18T01:03:57;6.07;;;5.47;;
15055;SDS011;7626;42.674;23.284;2022-12-18T01:06:24;5.57;;;5.07;;
15055;SDS011;7626;42.674;23.284;2022-12-18T01:08:50;5.67;;;5.17;;
15055;SDS011;7626;42.674;23.284;2022-12-18T01:11:18;5.83;;;5.33;;
15055;SDS011;7626;42.674;23.284;2022-12-18T01:13:46;6.03;;;5.43;;
15055;SDS011;7626;42.674;23.284;2022-12-18T01:16:13;5.50;;;5.00;;
15055;SDS011;7626;42.674;23.284;2022-12-18T01:18:41;5.77;;;5.27;;
15055;SDS011;7626;42.674;23.284;2022-12-18T01:21:11;5.87;;;5.37;;
15055;SDS011;7626;42.674;23.284;2022-12-18T01:23:39;6.20;;;5.63;;
15055;SDS011;7626;42.674;23.284;2022-12-18T01:26:06;5.60;;;5.10;;
15055;SDS011;7626;42.674;23.284;2022-12-18T01:28:34;6.37;;;5.77;;
15055;SDS011;7626;42.674;23.284;2022-12-18T01:31:14;6.10;;;5.60;;
15055;SDS011;7626;42.674;23.284;2022-12-18T01:33:44;6.20;;;5.50;;
15055;SDS011;7626;42.674;23.284;2022-12-18T01:36:19;6.57;;;5.80;;
15055;SDS011;7626;42.674;23.284;2022-12-18T01:38:47;6.27;;;5.73;;
15055;SDS011;7626;42.674;23.284;2022-12-18T01:41:14;6.60;;;6.00;;
15055;SDS011;7626;42.674;23.284;2022-12-18T01:43:43;6.17;;;5.67;;
15055;SDS011;7626;42.674;23.284;2022-12-18T01:46:12;6.70;;;6.00;;
15055;SDS011;7626;42.674;23.284;2022-12-18T01:48:39;6.30;;;5.70;;
15055;SDS011;7626;42.674;23.284;2022-12-18T01:51:07;6.13;;;5.57;;
15055;SDS011;7626;42.674;23.284;2022-12-18T01:53:37;6.50;;;5.90;;
15055;SDS011;7626;42.674;23.284;2022-12-18T01:56:06;6.07;;;5.57;;
15055;SDS011;7626;42.674;23.284;2022-12-18T01:58:36;5.93;;;5.43;;
15055;SDS011;7626;42.674;23.284;2022-12-18T02:01:08;6.43;;;5.83;;
15055;SDS011;7626;42.674;23.284;2022-12-18T02:03:35;6.10;;;5.60;;
15055;SDS011;7626;42.674;23.284;2022-12-18T02:06:05;6.13;;;5.60;;
15055;SDS011;7626;42.674;23.284;2022-12-18T02:08:39;6.27;;;5.67;;
15055;SDS011;7626;42.674;23.284;2022-12-18T02:11:15;6.47;;;5.87;;
15055;SDS011;7626;42.674;23.284;2022-12-18T02:13:52;6.37;;;5.83;;
15055;SDS011;7626;42.674;23.284;2022-12-18T02:16:29;5.70;;;5.20;;
15055;SDS011;7626;42.674;23.284;2022-12-18T02:19:05;6.53;;;5.93;;
15055;SDS011;7626;42.674;23.284;2022-12-18T02:21:45;6.03;;;5.53;;
15055;SDS011;7626;42.674;23.284;2022-12-18T02:24:24;6.63;;;6.03;;
15055;SDS011;7626;42.674;23.284;2022-12-18T02:27:01;6.40;;;5.80;;
15055;SDS011;7626;42.674;23.284;2022-12-18T02:29:33;6.33;;;5.77;;
15055;SDS011;7626;42.674;23.284;2022-12-18T02:32:05;6.23;;;5.73;;
15055;SDS011;7626;42.674;23.284;2022-12-18T02:34:36;6.47;;;5.90;;
15055;SDS011;7626;42.674;23.284;2022-12-18T02:37:06;6.60;;;5.93;;
15055;SDS011;7626;42.674;23.284;2022-12-18T02:39:39;5.87;;;5.37;;
15055;SDS011;7626;42.674;23.284;2022-12-18T02:42:10;6.50;;;5.90;;
15055;SDS011;7626;42.674;23.284;2022-12-18T02:44:41;6.53;;;5.93;;
15055;SDS011;7626;42.674;23.284;2022-12-18T02:47:10;6.20;;;5.60;;
15055;SDS011;7626;42.674;23.284;2022-12-18T02:49:40;6.53;;;5.93;;
15055;SDS011;7626;42.674;23.284;2022-12-18T02:52:17;6.23;;;5.67;;
15055;SDS011;7626;42.674;23.284;2022-12-18T02:54:55;6.27;;;5.73;;
15055;SDS011;7626;42.674;23.284;2022-12-18T02:57:35;6.37;;;5.77;;
15055;SDS011;7626;42.674;23.284;2022-12-18T03:00:11;6.40;;;5.80;;
15055;SDS011;7626;42.674;23.284;2022-12-18T03:02:41;6.50;;;5.90;;
15055;SDS011;7626;42.674;23.284;2022-12-18T03:05:13;6.43;;;5.73;;
15055;SDS011;7626;42.674;23.284;2022-12-18T03:07:45;6.40;;;5.80;;
15055;SDS011;7626;42.674;23.284;2022-12-18T03:10:17;5.90;;;5.33;;
15055;SDS011;7626;42.674;23.284;2022-12-18T03:12:52;5.80;;;5.30;;
15055;SDS011;7626;42.674;23.284;2022-12-18T03:15:25;6.60;;;6.00;;
15055;SDS011;7626;42.674;23.284;2022-12-18T03:17:56;5.90;;;5.30;;
15055;SDS011;7626;42.674;23.284;2022-12-18T03:20:28;6.40;;;5.80;;
15055;SDS011;7626;42.674;23.284;2022-12-18T03:22:59;6.27;;;5.77;;
15055;SDS011;7626;42.674;23.284;2022-12-18T03:25:33;6.60;;;6.00;;
15055;SDS011;7626;42.674;23.284;2022-12-18T03:28:06;6.40;;;5.80;;
15055;SDS011;7626;42.674;23.284;2022-12-18T03:30:38;6.23;;;5.73;;
15055;SDS011;7626;42.674;23.284;2022-12-18T03:33:08;6.03;;;5.53;;
15055;SDS011;7626;42.674;23.284;2022-12-18T03:35:38;6.30;;;5.70;;
15055;SDS011;7626;42.674;23.284;2022-12-18T03:38:07;6.63;;;6.03;;
15055;SDS011;7626;42.674;23.284;2022-12-18T03:40:38;6.37;;;5.77;;
15055;SDS011;7626;42.674;23.284;2022-12-18T03:43:27;6.13;;;5.63;;
15055;SDS011;7626;42.674;23.284;2022-12-18T03:46:02;6.50;;;5.90;;
15055;SDS011;7626;42.674;23.284;2022-12-18T03:48:36;5.57;;;5.07;;
15055;SDS011;7626;42.674;23.284;2022-12-18T03:51:08;6.33;;;5.73;;
15055;SDS011;7626;42.674;23.284;2022-12-18T03:53:39;5.83;;;5.20;;
15055;SDS011;7626;42.674;23.284;2022-12-18T03:56:14;6.10;;;5.60;;
15055;SDS011;7626;42.674;23.284;2022-12-18T03:58:44;6.07;;;5.57;;
15055;SDS011;7626;42.674;23.284;2022-12-18T04:01:14;5.43;;;4.93;;
15055;SDS011;7626;42.674;23.284;2022-12-18T04:03:42;5.97;;;5.47;;
15055;SDS011;7626;42.674;23.284;2022-12-18T04:06:12;5.90;;;5.40;;
15055;SDS011;7626;42.674;23.284;2022-12-18T04:08:41;5.67;;;5.17;;
15055;SDS011;7626;42.674;23.284;2022-12-18T04:11:08;6.07;;;5.57;;
15055;SDS011;7626;42.674;23.284;2022-12-18T04:13:36;6.10;;;5.50;;
15055;SDS011;7626;42.674;23.284;2022-12-18T04:16:05;6.10;;;5.60;;
15055;SDS011;7626;42.674;23.284;2022-12-18T04:18:32;6.17;;;5.57;;
15055;SDS011;7626;42.674;23.284;2022-12-18T04:20:59;5.73;;;5.23;;
15055;SDS011;7626;42.674;23.284;2022-12-18T04:23:26;6.43;;;5.83;;
15055;SDS011;7626;42.674;23.284;2022-12-18T04:25:53;6.20;;;5.60;;
15055;SDS011;7626;42.674;23.284;2022-12-18T04:28:20;5.70;;;5.20;;
15055;SDS011;7626;42.674;23.284;2022-12-18T04:30:47;5.77;;;5.17;;
15055;SDS011;7626;42.674;23.284;2022-12-18T04:33:15;6.43;;;5.83;;
15055;SDS011;7626;42.674;23.284;2022-12-18T04:35:43;6.33;;;5.70;;
15055;SDS011;7626;42.674;23.284;2022-12-18T04:38:10;6.53;;;5.93;;
15055;SDS011;7626;42.674;23.284;2022-12-18T04:40:37;5.97;;;5.47;;
15055;SDS011;7626;42.674;23.284;2022-12-18T04:43:04;5.83;;;5.33;;
15055;SDS011;7626;42.674;23.284;2022-12-18T04:45:31;6.60;;;5.57;;
15055;SDS011;7626;42.674;23.284;2022-12-18T04:47:58;6.40;;;5.80;;
15055;SDS011;7626;42.674;23.284;2022-12-18T04:50:26;6.70;;;6.00;;
15055;SDS011;7626;42.674;23.284;2022-12-18T04:52:53;6.93;;;6.23;;
15055;SDS011;7626;42.674;23.284;2022-12-18T04:55:20;6.50;;;5.90;;
15055;SDS011;7626;42.674;23.284;2022-12-18T04:57:47;6.57;;;5.97;;
15055;SDS011;7626;42.674;23.284;2022-12-18T05:00:14;6.80;;;6.20;;
15055;SDS011;7626;42.674;23.284;2022-12-18T05:02:41;7.10;;;6.40;;
15055;SDS011;7626;42.674;23.284;2022-12-18T05:05:08;7.53;;;6.83;;
15055;SDS011;7626;42.674;23.284;2022-12-18T05:07:36;7.67;;;6.93;;
15055;SDS011;7626;42.674;23.284;2022-12-18T05:10:04;7.30;;;6.63;;
15055;SDS011;7626;42.674;23.284;2022-12-18T05:12:34;7.37;;;6.67;;
15055;SDS011;7626;42.674;23.284;2022-12-18T05:15:21;7.93;;;7.20;;
15055;SDS011;7626;42.674;23.284;2022-12-18T05:17:47;7.40;;;6.70;;
15055;SDS011;7626;42.674;23.284;2022-12-18T05:20:14;8.23;;;7.43;;
15055;SDS011;7626;42.674;23.284;2022-12-18T05:22:42;7.93;;;7.13;;
15055;SDS011;7626;42.674;23.284;2022-12-18T05:25:09;7.83;;;7.10;;
15055;SDS011;7626;42.674;23.284;2022-12-18T05:27:36;8.73;;;7.90;;
15055;SDS011;7626;42.674;23.284;2022-12-18T05:30:03;8.80;;;7.93;;
15055;SDS011;7626;42.674;23.284;2022-12-18T05:32:30;8.17;;;7.37;;
15055;SDS011;7626;42.674;23.284;2022-12-18T05:34:57;8.67;;;7.77;;
15055;SDS011;7626;42.674;23.284;2022-12-18T05:37:23;8.27;;;7.57;;
15055;SDS011;7626;42.674;23.284;2022-12-18T05:39:52;9.17;;;8.27;;
15055;SDS011;7626;42.674;23.284;2022-12-18T05:42:18;8.10;;;7.30;;
15055;SDS011;7626;42.674;23.284;2022-12-18T05:44:45;8.43;;;7.63;;
15055;SDS011;7626;42.674;23.284;2022-12-18T05:47:12;8.87;;;8.00;;
15055;SDS011;7626;42.674;23.284;2022-12-18T05:49:39;8.57;;;7.77;;
15055;SDS011;7626;42.674;23.284;2022-12-18T05:52:05;8.83;;;7.83;;
15055;SDS011;7626;42.674;23.284;2022-12-18T05:54:32;9.17;;;8.27;;
15055;SDS011;7626;42.674;23.284;2022-12-18T05:57:01;9.27;;;8.27;;
15055;SDS011;7626;42.674;23.284;2022-12-18T05:59:27;8.97;;;8.07;;
15055;SDS011;7626;42.674;23.284;2022-12-18T06:01:54;9.07;;;8.17;;
15055;SDS011;7626;42.674;23.284;2022-12-18T06:04:21;9.70;;;8.70;;
15055;SDS011;7626;42.674;23.284;2022-12-18T06:06:48;10.60;;;8.87;;
15055;SDS011;7626;42.674;23.284;2022-12-18T06:09:14;10.27;;;9.17;;
15055;SDS011;7626;42.674;23.284;2022-12-18T06:11:41;9.53;;;8.63;;
15055;SDS011;7626;42.674;23.284;2022-12-18T06:14:09;9.80;;;8.80;;
15055;SDS011;7626;42.674;23.284;2022-12-18T06:16:36;10.13;;;9.13;;
15055;SDS011;7626;42.674;23.284;2022-12-18T06:19:04;9.93;;;8.97;;
15055;SDS011;7626;42.674;23.284;2022-12-18T06:21:32;9.47;;;8.57;;
15055;SDS011;7626;42.674;23.284;2022-12-18T06:23:59;10.33;;;9.23;;
15055;SDS011;7626;42.674;23.284;2022-12-18T06:26:26;10.40;;;9.30;;
15055;SDS011;7626;42.674;23.284;2022-12-18T06:28:53;10.27;;;9.20;;
15055;SDS011;7626;42.674;23.284;2022-12-18T06:31:21;10.10;;;9.10;;
15055;SDS011;7626;42.674;23.284;2022-12-18T06:33:48;10.83;;;9.73;;
15055;SDS011;7626;42.674;23.284;2022-12-18T06:36:14;10.17;;;9.17;;
15055;SDS011;7626;42.674;23.284;2022-12-18T06:38:42;10.50;;;9.47;;
15055;SDS011;7626;42.674;23.284;2022-12-18T06:41:10;10.33;;;9.23;;
15055;SDS011;7626;42.674;23.284;2022-12-18T06:43:37;10.07;;;9.07;;
15055;SDS011;7626;42.674;23.284;2022-12-18T06:46:04;10.63;;;9.53;;
15055;SDS011;7626;42.674;23.284;2022-12-18T06:48:33;10.43;;;9.33;;
15055;SDS011;7626;42.674;23.284;2022-12-18T06:51:00;10.90;;;9.80;;
15055;SDS011;7626;42.674;23.284;2022-12-18T06:53:27;10.50;;;9.40;;
15055;SDS011;7626;42.674;23.284;2022-12-18T06:55:59;10.53;;;9.43;;
15055;SDS011;7626;42.674;23.284;2022-12-18T06:58:26;10.90;;;9.90;;
15055;SDS011;7626;42.674;23.284;2022-12-18T07:00:53;11.37;;;10.13;;
15055;SDS011;7626;42.674;23.284;2022-12-18T07:03:25;10.40;;;9.30;;
15055;SDS011;7626;42.674;23.284;2022-12-18T07:05:53;10.30;;;9.30;;
15055;SDS011;7626;42.674;23.284;2022-12-18T07:08:19;11.20;;;10.13;;
15055;SDS011;7626;42.674;23.284;2022-12-18T07:10:46;10.53;;;9.43;;
15055;SDS011;7626;42.674;23.284;2022-12-18T07:13:14;10.40;;;9.40;;
15055;SDS011;7626;42.674;23.284;2022-12-18T07:15:41;10.93;;;9.83;;
15055;SDS011;7626;42.674;23.284;2022-12-18T07:18:08;10.60;;;9.47;;
15055;SDS011;7626;42.674;23.284;2022-12-18T07:20:35;10.53;;;9.30;;
15055;SDS011;7626;42.674;23.284;2022-12-18T07:23:03;10.30;;;9.20;;
15055;SDS011;7626;42.674;23.284;2022-12-18T07:25:33;10.57;;;9.47;;
15055;SDS011;7626;42.674;23.284;2022-12-18T07:28:00;10.87;;;9.77;;
15055;SDS011;7626;42.674;23.284;2022-12-18T07:30:26;10.73;;;9.63;;
15055;SDS011;7626;42.674;23.284;2022-12-18T07:32:53;11.17;;;10.00;;
15055;SDS011;7626;42.674;23.284;2022-12-18T07:35:20;11.03;;;9.93;;
15055;SDS011;7626;42.674;23.284;2022-12-18T07:37:47;10.67;;;9.37;;
15055;SDS011;7626;42.674;23.284;2022-12-18T07:40:15;10.20;;;9.20;;
15055;SDS011;7626;42.674;23.284;2022-12-18T07:42:42;9.87;;;8.87;;
15055;SDS011;7626;42.674;23.284;2022-12-18T07:45:09;10.40;;;9.40;;
15055;SDS011;7626;42.674;23.284;2022-12-18T07:47:36;10.50;;;9.23;;
15055;SDS011;7626;42.674;23.284;2022-12-18T07:50:03;10.30;;;9.30;;
15055;SDS011;7626;42.674;23.284;2022-12-18T07:52:31;10.87;;;9.77;;
15055;SDS011;7626;42.674;23.284;2022-12-18T07:54:58;11.17;;;10.07;;
15055;SDS011;7626;42.674;23.284;2022-12-18T07:57:26;9.80;;;8.80;;
15055;SDS011;7626;42.674;23.284;2022-12-18T07:59:52;10.83;;;9.73;;
15055;SDS011;7626;42.674;23.284;2022-12-18T08:02:19;11.27;;;10.07;;
15055;SDS011;7626;42.674;23.284;2022-12-18T08:04:46;11.27;;;9.53;;
15055;SDS011;7626;42.674;23.284;2022-12-18T08:07:13;11.10;;;10.00;;
15055;SDS011;7626;42.674;23.284;2022-12-18T08:09:39;12.13;;;10.83;;
15055;SDS011;7626;42.674;23.284;2022-12-18T08:12:06;11.10;;;10.00;;
15055;SDS011;7626;42.674;23.284;2022-12-18T08:14:34;11.47;;;10.37;;
15055;SDS011;7626;42.674;23.284;2022-12-18T08:17:01;11.40;;;10.20;;
15055;SDS011;7626;42.674;23.284;2022-12-18T08:19:28;12.60;;;11.30;;
15055;SDS011;7626;42.674;23.284;2022-12-18T08:21:54;13.20;;;11.87;;
15055;SDS011;7626;42.674;23.284;2022-12-18T08:24:22;13.33;;;11.93;;
15055;SDS011;7626;42.674;23.284;2022-12-18T08:26:48;11.93;;;10.73;;
15055;SDS011;7626;42.674;23.284;2022-12-18T08:29:15;12.50;;;11.23;;
15055;SDS011;7626;42.674;23.284;2022-12-18T08:31:43;13.47;;;12.07;;
15055;SDS011;7626;42.674;23.284;2022-12-18T08:34:10;13.20;;;11.90;;
15055;SDS011;7626;42.674;23.284;2022-12-18T08:36:37;12.50;;;11.30;;
15055;SDS011;7626;42.674;23.284;2022-12-18T08:39:04;12.63;;;11.33;;
15055;SDS011;7626;42.674;23.284;2022-12-18T08:41:30;13.37;;;12.07;;
15055;SDS011;7626;42.674;23.284;2022-12-18T08:43:57;14.53;;;12.90;;
15055;SDS011;7626;42.674;23.284;2022-12-18T08:46:43;14.00;;;12.50;;
15055;SDS011;7626;42.674;23.284;2022-12-18T08:49:12;13.77;;;12.37;;
15055;SDS011;7626;42.674;23.284;2022-12-18T08:51:38;13.20;;;11.90;;
15055;SDS011;7626;42.674;23.284;2022-12-18T08:54:06;15.10;;;13.50;;
15055;SDS011;7626;42.674;23.284;2022-12-18T08:56:33;14.40;;;12.47;;
15055;SDS011;7626;42.674;23.284;2022-12-18T08:59:00;13.53;;;12.13;;
15055;SDS011;7626;42.674;23.284;2022-12-18T09:01:27;14.90;;;13.30;;
15055;SDS011;7626;42.674;23.284;2022-12-18T09:03:55;14.30;;;12.80;;
15055;SDS011;7626;42.674;23.284;2022-12-18T09:06:22;14.70;;;13.17;;
15055;SDS011;7626;42.674;23.284;2022-12-18T09:08:51;13.97;;;12.67;;
15055;SDS011;7626;42.674;23.284;2022-12-18T09:11:19;14.37;;;12.87;;
15055;SDS011;7626;42.674;23.284;2022-12-18T09:13:48;15.03;;;13.43;;
15055;SDS011;7626;42.674;23.284;2022-12-18T09:16:15;15.10;;;13.50;;
15055;SDS011;7626;42.674;23.284;2022-12-18T09:18:42;13.83;;;12.43;;
15055;SDS011;7626;42.674;23.284;2022-12-18T09:21:12;15.13;;;13.50;;
15055;SDS011;7626;42.674;23.284;2022-12-18T09:23:39;16.37;;;14.03;;
15055;SDS011;7626;42.674;23.284;2022-12-18T09:26:06;14.77;;;13.17;;
15055;SDS011;7626;42.674;23.284;2022-12-18T09:28:34;13.40;;;12.00;;
15055;SDS011;7626;42.674;23.284;2022-12-18T09:31:03;14.97;;;13.40;;
15055;SDS011;7626;42.674;23.284;2022-12-18T09:33:31;15.23;;;13.43;;
15055;SDS011;7626;42.674;23.284;2022-12-18T09:36:00;14.13;;;12.63;;
15055;SDS011;7626;42.674;23.284;2022-12-18T09:38:29;13.73;;;12.27;;
15055;SDS011;7626;42.674;23.284;2022-12-18T09:40:57;13.80;;;12.40;;
15055;SDS011;7626;42.674;23.284;2022-12-18T09:43:28;14.57;;;13.10;;
15055;SDS011;7626;42.674;23.284;2022-12-18T09:46:01;14.83;;;13.20;;
15055;SDS011;7626;42.674;23.284;2022-12-18T09:48:31;14.33;;;12.83;;
15055;SDS011;7626;42.674;23.284;2022-12-18T09:51:04;14.13;;;12.63;;
15055;SDS011;7626;42.674;23.284;2022-12-18T09:53:39;16.03;;;13.23;;
15055;SDS011;7626;42.674;23.284;2022-12-18T09:56:10;14.87;;;12.50;;
15055;SDS011;7626;42.674;23.284;2022-12-18T09:58:41;14.53;;;13.03;;
15055;SDS011;7626;42.674;23.284;2022-12-18T10:01:14;15.43;;;13.60;;
15055;SDS011;7626;42.674;23.284;2022-12-18T10:03:47;14.37;;;12.83;;
15055;SDS011;7626;42.674;23.284;2022-12-18T10:06:15;14.73;;;13.20;;
15055;SDS011;7626;42.674;23.284;2022-12-18T10:08:51;14.63;;;13.10;;
15055;SDS011;7626;42.674;23.284;2022-12-18T10:11:30;14.10;;;12.70;;
15055;SDS011;7626;42.674;23.284;2022-12-18T10:14:05;14.17;;;12.67;;
15055;SDS011;7626;42.674;23.284;2022-12-18T10:16:39;14.37;;;12.87;;
15055;SDS011;7626;42.674;23.284;2022-12-18T10:19:19;14.60;;;12.87;;
15055;SDS011;7626;42.674;23.284;2022-12-18T10:21:57;14.00;;;12.60;;
15055;SDS011;7626;42.674;23.284;2022-12-18T10:24:32;14.80;;;13.30;;
15055;SDS011;7626;42.674;23.284;2022-12-18T10:27:09;14.03;;;12.47;;
15055;SDS011;7626;42.674;23.284;2022-12-18T10:29:40;14.33;;;12.83;;
15055;SDS011;7626;42.674;23.284;2022-12-18T10:32:08;15.03;;;12.97;;
15055;SDS011;7626;42.674;23.284;2022-12-18T10:34:41;14.50;;;12.57;;
15055;SDS011;7626;42.674;23.284;2022-12-18T10:37:11;14.87;;;13.27;;
15055;SDS011;7626;42.674;23.284;2022-12-18T10:39:44;14.03;;;12.50;;
15055;SDS011;7626;42.674;23.284;2022-12-18T10:42:15;14.67;;;13.07;;
15055;SDS011;7626;42.674;23.284;2022-12-18T10:44:43;14.23;;;12.73;;
15055;SDS011;7626;42.674;23.284;2022-12-18T10:47:11;14.20;;;12.70;;
15055;SDS011;7626;42.674;23.284;2022-12-18T10:49:42;14.93;;;13.33;;
15055;SDS011;7626;42.674;23.284;2022-12-18T10:52:17;13.90;;;12.33;;
15055;SDS011;7626;42.674;23.284;2022-12-18T10:54:51;13.73;;;12.27;;
15055;SDS011;7626;42.674;23.284;2022-12-18T10:57:29;14.00;;;12.40;;
15055;SDS011;7626;42.674;23.284;2022-12-18T10:59:59;13.97;;;12.47;;
15055;SDS011;7626;42.674;23.284;2022-12-18T11:02:39;14.60;;;12.93;;
15055;SDS011;7626;42.674;23.284;2022-12-18T11:07:53;13.30;;;11.90;;
15055;SDS011;7626;42.674;23.284;2022-12-18T11:10:22;13.77;;;12.37;;
15055;SDS011;7626;42.674;23.284;2022-12-18T11:12:52;14.70;;;13.20;;
15055;SDS011;7626;42.674;23.284;2022-12-18T11:15:20;13.97;;;12.47;;
15055;SDS011;7626;42.674;23.284;2022-12-18T11:17:50;13.67;;;12.20;;
15055;SDS011;7626;42.674;23.284;2022-12-18T11:20:23;15.57;;;13.43;;
15055;SDS011;7626;42.674;23.284;2022-12-18T11:22:57;14.20;;;12.67;;
15055;SDS011;7626;42.674;23.284;2022-12-18T11:25:27;14.53;;;13.00;;
15055;SDS011;7626;42.674;23.284;2022-12-18T11:27:55;13.63;;;12.07;;
15055;SDS011;7626;42.674;23.284;2022-12-18T11:30:24;13.27;;;11.77;;
15055;SDS011;7626;42.674;23.284;2022-12-18T11:32:58;13.50;;;11.97;;
15055;SDS011;7626;42.674;23.284;2022-12-18T11:35:35;13.50;;;12.10;;
15055;SDS011;7626;42.674;23.284;2022-12-18T11:38:12;14.13;;;12.53;;
15055;SDS011;7626;42.674;23.284;2022-12-18T11:40:49;13.47;;;12.00;;
15055;SDS011;7626;42.674;23.284;2022-12-18T11:43:25;12.67;;;11.37;;
15055;SDS011;7626;42.674;23.284;2022-12-18T11:45:55;14.47;;;12.10;;
15055;SDS011;7626;42.674;23.284;2022-12-18T11:48:27;13.77;;;12.37;;
15055;SDS011;7626;42.674;23.284;2022-12-18T11:51:00;12.63;;;10.83;;
15055;SDS011;7626;42.674;23.284;2022-12-18T11:53:31;13.33;;;11.17;;
15055;SDS011;7626;42.674;23.284;2022-12-18T11:56:04;13.60;;;12.20;;
15055;SDS011;7626;42.674;23.284;2022-12-18T11:58:57;13.37;;;12.07;;
15055;SDS011;7626;42.674;23.284;2022-12-18T12:01:36;13.47;;;11.67;;
15055;SDS011;7626;42.674;23.284;2022-12-18T12:07:09;13.43;;;11.97;;
15055;SDS011;7626;42.674;23.284;2022-12-18T12:09:46;13.87;;;12.27;;
15055;SDS011;7626;42.674;23.284;2022-12-18T12:12:27;13.57;;;11.43;;
15055;SDS011;7626;42.674;23.284;2022-12-18T12:15:13;13.53;;;12.07;;
15055;SDS011;7626;42.674;23.284;2022-12-18T12:17:50;13.73;;;12.33;;
15055;SDS011;7626;42.674;23.284;2022-12-18T12:20:24;13.60;;;12.13;;
15055;SDS011;7626;42.674;23.284;2022-12-18T12:23:03;14.30;;;11.60;;
15055;SDS011;7626;42.674;23.284;2022-12-18T12:25:40;13.53;;;11.90;;
15055;SDS011;7626;42.674;23.284;2022-12-18T12:28:15;13.10;;;11.63;;
15055;SDS011;7626;42.674;23.284;2022-12-18T12:30:55;12.33;;;11.03;;
15055;SDS011;7626;42.674;23.284;2022-12-18T12:33:33;13.10;;;11.70;;
15055;SDS011;7626;42.674;23.284;2022-12-18T12:36:09;13.17;;;11.70;;
15055;SDS011;7626;42.674;23.284;2022-12-18T12:38:44;12.37;;;11.07;;
15055;SDS011;7626;42.674;23.284;2022-12-18T12:41:17;13.67;;;11.93;;
15055;SDS011;7626;42.674;23.284;2022-12-18T12:44:06;14.07;;;12.60;;
15055;SDS011;7626;42.674;23.284;2022-12-18T12:46:39;12.77;;;11.47;;
15055;SDS011;7626;42.674;23.284;2022-12-18T12:49:10;13.50;;;12.10;;
15055;SDS011;7626;42.674;23.284;2022-12-18T12:51:40;13.57;;;12.07;;
15055;SDS011;7626;42.674;23.284;2022-12-18T12:54:11;13.30;;;11.90;;
15055;SDS011;7626;42.674;23.284;2022-12-18T12:56:45;13.17;;;11.40;;
15055;SDS011;7626;42.674;23.284;2022-12-18T12:59:22;13.67;;;12.17;;
15055;SDS011;7626;42.674;23.284;2022-12-18T13:01:54;13.07;;;11.63;;
15055;SDS011;7626;42.674;23.284;2022-12-18T13:04:31;13.97;;;12.07;;
15055;SDS011;7626;42.674;23.284;2022-12-18T13:07:10;14.40;;;12.30;;
15055;SDS011;7626;42.674;23.284;2022-12-18T13:12:52;14.90;;;12.10;;
15055;SDS011;7626;42.674;23.284;2022-12-18T13:15:24;15.83;;;12.80;;
15055;SDS011;7626;42.674;23.284;2022-12-18T13:18:13;14.50;;;12.93;;
15055;SDS011;7626;42.674;23.284;2022-12-18T13:20:43;13.97;;;12.47;;
15055;SDS011;7626;42.674;23.284;2022-12-18T13:23:28;14.17;;;12.67;;
15055;SDS011;7626;42.674;23.284;2022-12-18T13:25:57;13.57;;;12.17;;
15055;SDS011;7626;42.674;23.284;2022-12-18T13:34:31;14.07;;;12.57;;
15055;SDS011;7626;42.674;23.284;2022-12-18T13:39:57;13.93;;;12.43;;
15055;SDS011;7626;42.674;23.284;2022-12-18T13:42:39;22.50;;;12.57;;
15055;SDS011;7626;42.674;23.284;2022-12-18T13:48:15;26.60;;;11.83;;
15055;SDS011;7626;42.674;23.284;2022-12-18T13:50:50;21.73;;;13.17;;
15055;SDS011;7626;42.674;23.284;2022-12-18T13:53:21;21.30;;;11.73;;
15055;SDS011;7626;42.674;23.284;2022-12-18T13:55:52;28.57;;;12.17;;
15055;SDS011;7626;42.674;23.284;2022-12-18T13:58:19;35.00;;;12.90;;
15055;SDS011;7626;42.674;23.284;2022-12-18T14:00:46;29.23;;;12.07;;
15055;SDS011;7626;42.674;23.284;2022-12-18T14:03:20;24.77;;;11.60;;
15055;SDS011;7626;42.674;23.284;2022-12-18T14:05:53;28.40;;;11.43;;
15055;SDS011;7626;42.674;23.284;2022-12-18T14:08:22;26.03;;;11.67;;
15055;SDS011;7626;42.674;23.284;2022-12-18T14:10:51;19.50;;;11.53;;
15055;SDS011;7626;42.674;23.284;2022-12-18T14:13:21;17.57;;;11.07;;
15055;SDS011;7626;42.674;23.284;2022-12-18T14:15:53;24.83;;;12.73;;
15055;SDS011;7626;42.674;23.284;2022-12-18T14:18:21;18.93;;;12.33;;
15055;SDS011;7626;42.674;23.284;2022-12-18T14:20:49;21.23;;;12.30;;
15055;SDS011;7626;42.674;23.284;2022-12-18T14:23:32;17.90;;;12.80;;
15055;SDS011;7626;42.674;23.284;2022-12-18T14:26:01;21.63;;;12.73;;
15055;SDS011;7626;42.674;23.284;2022-12-18T14:28:29;18.50;;;11.73;;
15055;SDS011;7626;42.674;23.284;2022-12-18T14:30:56;16.37;;;12.03;;
15055;SDS011;7626;42.674;23.284;2022-12-18T14:33:23;15.30;;;11.93;;
15055;SDS011;7626;42.674;23.284;2022-12-18T14:35:52;14.60;;;11.77;;
15055;SDS011;7626;42.674;23.284;2022-12-18T14:38:22;16.43;;;12.67;;
15055;SDS011;7626;42.674;23.284;2022-12-18T14:40:59;17.63;;;12.10;;
15055;SDS011;7626;42.674;23.284;2022-12-18T14:43:28;20.03;;;13.00;;
15055;SDS011;7626;42.674;23.284;2022-12-18T14:45:57;15.00;;;12.33;;
15055;SDS011;7626;42.674;23.284;2022-12-18T14:48:31;17.13;;;12.37;;
15055;SDS011;7626;42.674;23.284;2022-12-18T14:51:01;17.17;;;12.67;;
15055;SDS011;7626;42.674;23.284;2022-12-18T14:53:34;15.73;;;12.47;;
15055;SDS011;7626;42.674;23.284;2022-12-18T14:56:05;16.63;;;12.57;;
15055;SDS011;7626;42.674;23.284;2022-12-18T14:58:44;16.77;;;12.73;;
15055;SDS011;7626;42.674;23.284;2022-12-18T15:01:17;12.63;;;11.30;;
15055;SDS011;7626;42.674;23.284;2022-12-18T15:03:49;26.33;;;12.47;;
15055;SDS011;7626;42.674;23.284;2022-12-18T15:06:18;57.60;;;15.50;;
15055;SDS011;7626;42.674;23.284;2022-12-18T15:08:52;50.00;;;15.43;;
15055;SDS011;7626;42.674;23.284;2022-12-18T15:11:32;60.77;;;17.20;;
15055;SDS011;7626;42.674;23.284;2022-12-18T15:14:23;68.60;;;16.90;;